Time;durP1;ratioP1;P1;durP2;ratioP2;P2;SDS_P1;SDS_P2;PMS_P1;PMS_P2;Temp;Humidity;BMP_temperature;BMP_pressure;BME280_temperature;BME280_humidity;BME280_pressure;Samples;Min_cycle;Max_cycle;Signal;HPM_P1;HPM_P2
2022/01/19 00:01:19;;;;;;;46.03;20.58;;;5.70;99.90;;;;;;5012488;28;20030;-75
2022/01/19 00:03:45;;;;;;;45.50;21.85;;;5.80;99.90;;;;;;5006148;28;20089;-74
2022/01/19 00:06:11;;;;;;;47.45;21.38;;;5.80;99.90;;;;;;5007668;28;20034;-74
2022/01/19 00:08:37;;;;;;;46.50;22.13;;;5.80;99.90;;;;;;5006445;28;20096;-74
2022/01/19 00:11:03;;;;;;;38.55;18.73;;;5.80;99.90;;;;;;5006619;28;20089;-74
2022/01/19 00:13:29;;;;;;;40.55;18.42;;;5.80;99.90;;;;;;5010780;28;20028;-74
2022/01/19 00:15:55;;;;;;;39.15;18.45;;;5.80;99.90;;;;;;5010612;28;20036;-74
2022/01/19 00:18:24;;;;;;;42.10;19.90;;;5.80;99.90;;;;;;5011848;28;20026;-74
2022/01/19 00:20:51;;;;;;;41.13;19.50;;;5.80;99.90;;;;;;5009896;28;20074;-74
2022/01/19 00:23:18;;;;;;;43.97;20.77;;;5.80;99.90;;;;;;4993233;28;20022;-76
2022/01/19 00:25:45;;;;;;;41.00;20.75;;;5.80;99.90;;;;;;5003285;28;20030;-75
2022/01/19 00:28:12;;;;;;;44.10;19.90;;;5.80;99.90;;;;;;5004353;28;20025;-74
2022/01/19 00:30:39;;;;;;;43.03;20.33;;;5.90;99.90;;;;;;5010767;28;20018;-75
2022/01/19 00:33:05;;;;;;;48.53;22.10;;;5.80;99.90;;;;;;5007252;28;20399;-75
2022/01/19 00:35:31;;;;;;;48.35;21.40;;;5.80;99.90;;;;;;5010117;28;20147;-76
2022/01/19 00:37:56;;;;;;;51.65;24.48;;;5.80;99.90;;;;;;5014125;28;20057;-74
2022/01/19 00:40:22;;;;;;;56.30;25.65;;;5.80;99.90;;;;;;5010940;28;20045;-75
2022/01/19 00:42:49;;;;;;;53.38;24.85;;;5.80;99.90;;;;;;5007477;28;20081;-75
2022/01/19 00:45:16;;;;;;;57.63;26.48;;;5.80;99.90;;;;;;5005810;28;20032;-75
2022/01/19 00:47:42;;;;;;;56.53;25.58;;;5.70;99.90;;;;;;5012076;28;20022;-75
2022/01/19 00:50:11;;;;;;;43.42;21.88;;;5.70;99.90;;;;;;5009553;28;20013;-75
2022/01/19 00:52:37;;;;;;;51.55;22.50;;;5.70;99.90;;;;;;5000370;28;20022;-74
2022/01/19 00:55:08;;;;;;;46.13;21.27;;;5.70;99.90;;;;;;5009354;28;20511;-75
2022/01/19 00:57:34;;;;;;;42.90;20.67;;;5.70;99.90;;;;;;5009606;28;20026;-74
2022/01/19 01:00:00;;;;;;;41.33;19.92;;;5.70;99.90;;;;;;5009373;28;20076;-75
2022/01/19 01:02:26;;;;;;;42.42;18.90;;;5.60;99.90;;;;;;5006259;28;20026;-74
2022/01/19 01:04:52;;;;;;;41.50;19.50;;;5.60;99.90;;;;;;5004585;28;20812;-74
2022/01/19 01:07:18;;;;;;;42.58;20.23;;;5.60;99.90;;;;;;4993462;28;20030;-75
2022/01/19 01:09:43;;;;;;;43.13;19.92;;;5.60;99.90;;;;;;5007053;28;20057;-75
2022/01/19 01:12:13;;;;;;;47.83;22.80;;;5.60;99.90;;;;;;5007760;28;20022;-74
2022/01/19 01:20:11;;;;;;;52.08;24.55;;;5.60;99.90;;;;;;5007804;28;20384;-75
2022/01/19 01:22:38;;;;;;;54.88;24.20;;;5.60;99.90;;;;;;5009260;28;20108;-75
2022/01/19 01:25:05;;;;;;;53.70;26.60;;;5.60;99.90;;;;;;5007725;28;20037;-74
2022/01/19 01:27:31;;;;;;;61.05;28.23;;;5.60;99.90;;;;;;4999980;28;20034;-74
2022/01/19 01:29:57;;;;;;;58.70;27.13;;;5.60;99.90;;;;;;5010232;28;20041;-74
2022/01/19 01:32:23;;;;;;;59.03;27.83;;;5.60;99.90;;;;;;5005211;28;20025;-75
2022/01/19 01:34:50;;;;;;;59.50;28.20;;;5.60;99.90;;;;;;5006615;28;20034;-75
2022/01/19 01:37:16;;;;;;;55.33;26.73;;;5.50;99.90;;;;;;5007248;28;20029;-75
2022/01/19 01:39:42;;;;;;;55.30;26.48;;;5.50;99.90;;;;;;5006141;28;20105;-75
2022/01/19 01:42:09;;;;;;;61.33;28.02;;;5.50;99.90;;;;;;5013700;28;20101;-75
2022/01/19 01:44:37;;;;;;;57.38;26.38;;;5.40;99.90;;;;;;5013124;28;20034;-75
2022/01/19 01:47:03;;;;;;;57.42;25.90;;;5.40;99.90;;;;;;5011771;28;20045;-75
2022/01/19 01:55:02;;;;;;;48.35;22.27;;;5.30;99.90;;;;;;5014995;28;20079;-75
2022/01/19 01:57:28;;;;;;;46.70;21.83;;;5.30;99.90;;;;;;5017673;28;20026;-75
2022/01/19 01:59:54;;;;;;;45.47;20.95;;;5.30;99.90;;;;;;5013312;28;20060;-74
2022/01/19 02:02:19;;;;;;;44.35;20.52;;;5.30;99.90;;;;;;5014046;28;20061;-75
2022/01/19 02:04:45;;;;;;;48.97;21.80;;;5.30;99.90;;;;;;5009601;28;20430;-75
2022/01/19 02:07:32;;;;;;;52.22;22.45;;;5.30;99.90;;;;;;5013976;28;20022;-76
2022/01/19 02:10:03;;;;;;;50.70;22.65;;;5.30;99.90;;;;;;5010725;28;20037;-74
2022/01/19 02:23:48;;;;;;;59.28;25.77;;;5.20;99.90;;;;;;4979065;28;20101;-75
2022/01/19 02:26:21;;;;;;;62.30;26.98;;;5.20;99.90;;;;;;5010089;28;20042;-75
2022/01/19 02:40:05;;;;;;;55.13;24.60;;;5.10;99.90;;;;;;5013770;28;20124;-74
2022/01/19 02:42:34;;;;;;;45.85;19.95;;;5.20;99.90;;;;;;5012690;28;20025;-75
2022/01/19 02:49:55;;;;;;;33.78;15.93;;;5.00;99.90;;;;;;5013157;28;20026;-74
2022/01/19 02:52:22;;;;;;;39.72;17.15;;;5.00;99.90;;;;;;5010748;28;20022;-75
2022/01/19 02:54:49;;;;;;;42.92;19.77;;;5.00;99.90;;;;;;5006799;28;20024;-75
2022/01/19 02:57:15;;;;;;;47.33;18.83;;;4.90;99.90;;;;;;5017283;28;20036;-75
2022/01/19 03:10:33;;;;;;;33.63;14.00;;;4.80;99.90;;;;;;5011150;28;20029;-75
2022/01/19 03:12:59;;;;;;;36.92;15.52;;;4.80;99.90;;;;;;5010696;28;21831;-74
2022/01/19 03:15:25;;;;;;;51.58;17.40;;;4.80;99.90;;;;;;5006787;28;20072;-75
2022/01/19 03:17:53;;;;;;;43.00;16.48;;;4.80;99.90;;;;;;5008632;28;20025;-75
2022/01/19 03:20:18;;;;;;;41.65;15.65;;;4.80;99.90;;;;;;5012306;28;20025;-75
2022/01/19 03:22:57;;;;;;;38.38;15.13;;;4.80;99.90;;;;;;5007899;28;20136;-73
2022/01/19 03:25:23;;;;;;;39.33;16.02;;;4.80;99.90;;;;;;5009054;28;20029;-73
2022/01/19 03:27:48;;;;;;;40.03;16.70;;;4.80;99.90;;;;;;5010785;28;20156;-73
2022/01/19 03:30:16;;;;;;;38.42;16.02;;;4.70;99.90;;;;;;5007068;28;20065;-74
2022/01/19 03:32:42;;;;;;;40.13;16.00;;;4.70;99.90;;;;;;5010035;28;20053;-74
2022/01/19 03:35:09;;;;;;;40.20;14.43;;;4.70;99.90;;;;;;5008954;28;20069;-73
2022/01/19 03:37:35;;;;;;;39.75;14.80;;;4.80;99.90;;;;;;5006851;28;20030;-73
2022/01/19 03:40:02;;;;;;;32.65;14.77;;;4.80;99.90;;;;;;5011845;28;20072;-74
2022/01/19 03:42:27;;;;;;;36.60;15.27;;;4.80;99.90;;;;;;5005706;28;20175;-74
2022/01/19 03:44:53;;;;;;;33.17;13.82;;;4.90;99.90;;;;;;5008531;28;21730;-74
2022/01/19 03:47:19;;;;;;;30.95;13.70;;;4.90;99.90;;;;;;5011691;28;21256;-74
2022/01/19 03:49:45;;;;;;;40.95;16.33;;;4.90;99.90;;;;;;5006683;28;20105;-74
2022/01/19 03:52:10;;;;;;;32.40;14.90;;;4.90;99.90;;;;;;5007337;28;20018;-74
2022/01/19 03:54:39;;;;;;;33.63;14.93;;;4.90;99.90;;;;;;5009006;28;20100;-73
2022/01/19 03:57:05;;;;;;;32.67;13.18;;;4.90;99.90;;;;;;5005743;28;20061;-76
2022/01/19 03:59:31;;;;;;;38.17;15.38;;;4.80;99.90;;;;;;5008610;28;20057;-74
2022/01/19 04:01:58;;;;;;;36.10;14.75;;;4.90;99.90;;;;;;5009584;28;20109;-73
2022/01/19 04:09:23;;;;;;;33.42;15.02;;;4.80;99.90;;;;;;5006025;28;20041;-74
2022/01/19 04:11:50;;;;;;;39.10;14.13;;;4.80;99.90;;;;;;5002392;28;20034;-74
2022/01/19 04:14:21;;;;;;;35.40;13.25;;;4.80;99.90;;;;;;5010686;28;20551;-74
2022/01/19 04:16:48;;;;;;;39.47;13.85;;;4.70;99.90;;;;;;5008198;28;20109;-74
2022/01/19 04:19:32;;;;;;;33.40;13.32;;;4.70;99.90;;;;;;5005306;28;20648;-73
2022/01/19 04:22:00;;;;;;;30.05;12.15;;;4.70;99.90;;;;;;5004613;28;20034;-74
2022/01/19 04:24:27;;;;;;;29.50;13.25;;;4.70;99.90;;;;;;5008068;28;20104;-74
2022/01/19 04:26:58;;;;;;;33.13;13.77;;;4.60;99.90;;;;;;5009593;28;20026;-73
2022/01/19 04:29:25;;;;;;;32.92;12.40;;;4.70;99.90;;;;;;5008363;28;20018;-74
2022/01/19 04:31:51;;;;;;;32.63;12.98;;;4.60;99.90;;;;;;5006631;28;20530;-74
2022/01/19 04:34:19;;;;;;;31.02;12.90;;;4.70;99.90;;;;;;5006933;28;20053;-74
2022/01/19 04:39:25;;;;;;;31.88;12.70;;;4.70;99.90;;;;;;5010361;28;20084;-74
2022/01/19 05:03:42;;;;;;;32.13;11.13;;;4.60;99.90;;;;;;5008398;28;20050;-73
2022/01/19 05:06:13;;;;;;;27.95;13.20;;;4.60;99.90;;;;;;5025403;28;20484;-73
2022/01/19 05:13:52;;;;;;;31.00;11.57;;;4.50;99.90;;;;;;5008799;28;20022;-74
2022/01/19 05:16:22;;;;;;;25.58;10.95;;;4.60;99.90;;;;;;5013235;28;22209;-74
2022/01/19 05:18:49;;;;;;;37.13;13.10;;;4.60;99.90;;;;;;5026827;28;20484;-75
2022/01/19 05:21:15;;;;;;;31.45;10.98;;;4.70;99.90;;;;;;5007873;28;20084;-75
2022/01/19 05:23:41;;;;;;;30.90;12.48;;;4.70;99.90;;;;;;5010063;28;20030;-74
2022/01/19 05:26:07;;;;;;;33.42;13.20;;;4.60;99.90;;;;;;5006733;28;20387;-75
2022/01/19 05:28:33;;;;;;;25.08;11.80;;;4.60;99.90;;;;;;5007845;28;20032;-75
2022/01/19 05:30:58;;;;;;;28.65;12.48;;;4.60;99.90;;;;;;5008664;28;20034;-75
2022/01/19 05:33:24;;;;;;;32.90;12.68;;;4.60;99.90;;;;;;5007606;28;20116;-75
2022/01/19 05:35:50;;;;;;;28.30;11.85;;;4.60;99.90;;;;;;5009113;28;20075;-75
2022/01/19 05:38:16;;;;;;;28.83;11.43;;;4.70;99.90;;;;;;5001504;28;20039;-75
2022/01/19 05:40:41;;;;;;;30.75;12.38;;;4.60;99.90;;;;;;5002459;28;20022;-74
2022/01/19 05:43:07;;;;;;;27.17;12.02;;;4.60;99.90;;;;;;5003222;28;20114;-75
2022/01/19 05:45:33;;;;;;;26.90;12.60;;;4.60;99.90;;;;;;5006582;28;20041;-74
2022/01/19 05:47:58;;;;;;;29.63;13.27;;;4.70;99.90;;;;;;5006354;28;20080;-75
2022/01/19 05:50:24;;;;;;;32.00;12.45;;;4.70;99.90;;;;;;5001915;28;20041;-74
2022/01/19 05:52:51;;;;;;;30.95;12.77;;;4.60;99.90;;;;;;5003315;28;20022;-75
2022/01/19 05:55:16;;;;;;;25.77;10.57;;;4.60;99.90;;;;;;5006213;28;20022;-75
2022/01/19 05:57:42;;;;;;;29.08;12.35;;;4.60;99.90;;;;;;5006371;28;20030;-75
2022/01/19 06:00:09;;;;;;;30.13;11.05;;;4.50;99.90;;;;;;5001746;28;20031;-73
2022/01/19 06:02:36;;;;;;;24.27;11.88;;;4.50;99.90;;;;;;5003694;28;20060;-75
2022/01/19 06:05:03;;;;;;;35.08;12.15;;;4.60;99.90;;;;;;5004793;28;20534;-75
2022/01/19 06:07:30;;;;;;;36.10;13.55;;;4.70;99.90;;;;;;5007501;28;20133;-76
2022/01/19 06:10:06;;;;;;;38.65;14.18;;;4.70;99.90;;;;;;5005739;23;20050;-73
2022/01/19 06:12:33;;;;;;;41.05;15.63;;;4.60;99.90;;;;;;4983303;28;20022;-73
2022/01/19 06:15:00;;;;;;;38.53;16.00;;;4.60;99.90;;;;;;4983112;28;20776;-73
2022/01/19 06:17:26;;;;;;;37.65;16.15;;;4.60;99.90;;;;;;4982930;28;20038;-74
2022/01/19 06:19:52;;;;;;;38.22;15.32;;;4.60;99.90;;;;;;4981755;28;20197;-74
2022/01/19 06:22:18;;;;;;;49.22;18.20;;;4.60;99.90;;;;;;4985331;28;20487;-74
2022/01/19 06:24:44;;;;;;;49.28;17.52;;;4.70;99.90;;;;;;4985379;28;20484;-74
2022/01/19 06:27:11;;;;;;;41.78;18.00;;;4.70;99.90;;;;;;4985969;28;20125;-74
2022/01/19 06:29:37;;;;;;;46.05;17.60;;;4.70;99.90;;;;;;4988026;28;20137;-73
2022/01/19 06:32:03;;;;;;;48.30;18.08;;;4.70;99.90;;;;;;4986310;28;20402;-74
2022/01/19 06:34:29;;;;;;;45.25;18.50;;;4.70;99.90;;;;;;4986969;28;20113;-74
2022/01/19 06:36:54;;;;;;;60.85;20.10;;;4.70;99.90;;;;;;4986441;28;20145;-74
2022/01/19 06:39:21;;;;;;;55.58;19.50;;;4.80;99.90;;;;;;4989577;28;20468;-73
2022/01/19 06:41:47;;;;;;;46.90;19.55;;;4.70;99.90;;;;;;5002835;28;20078;-74
2022/01/19 06:44:14;;;;;;;54.92;22.65;;;4.80;99.90;;;;;;4988151;28;20030;-74
2022/01/19 06:46:43;;;;;;;68.30;25.88;;;4.70;99.90;;;;;;4986667;28;20033;-74
2022/01/19 06:49:09;;;;;;;60.58;24.98;;;4.70;99.90;;;;;;5000302;28;20022;-74
2022/01/19 06:51:35;;;;;;;62.85;24.50;;;4.70;99.90;;;;;;4985009;28;20039;-74
2022/01/19 06:54:01;;;;;;;57.75;24.20;;;4.70;99.90;;;;;;4988188;28;20101;-74
2022/01/19 06:56:27;;;;;;;67.72;24.77;;;4.70;99.90;;;;;;4985145;28;20038;-74
2022/01/19 06:58:53;;;;;;;62.05;25.38;;;4.70;99.90;;;;;;4997922;28;20037;-74
2022/01/19 07:01:19;;;;;;;62.13;24.27;;;4.70;99.90;;;;;;4986041;28;20038;-74
2022/01/19 07:03:45;;;;;;;59.85;23.27;;;4.70;99.90;;;;;;4984344;28;20034;-74
2022/01/19 07:06:11;;;;;;;60.45;24.23;;;4.70;99.90;;;;;;4984270;28;20026;-74
2022/01/19 07:08:41;;;;;;;49.85;20.92;;;4.70;99.90;;;;;;4989102;28;20061;-75
2022/01/19 07:11:06;;;;;;;57.75;24.10;;;4.70;99.90;;;;;;4991635;28;20145;-74
2022/01/19 07:13:33;;;;;;;64.25;24.63;;;4.80;99.90;;;;;;4982019;28;20077;-74
2022/01/19 07:15:58;;;;;;;63.53;24.40;;;4.80;99.90;;;;;;4983446;28;20027;-73
2022/01/19 07:18:24;;;;;;;56.45;23.17;;;4.80;99.90;;;;;;4984453;28;20381;-73
2022/01/19 07:20:50;;;;;;;56.80;24.35;;;4.80;99.90;;;;;;4984910;28;20019;-73
2022/01/19 07:23:16;;;;;;;59.67;24.77;;;4.80;99.90;;;;;;4985616;28;20400;-73
2022/01/19 07:25:42;;;;;;;62.30;24.65;;;4.80;99.90;;;;;;4985936;28;20022;-73
2022/01/19 07:28:11;;;;;;;57.70;24.17;;;4.80;99.90;;;;;;4985531;28;20034;-74
2022/01/19 07:30:37;;;;;;;57.05;24.85;;;4.80;99.90;;;;;;4985664;28;20520;-73
2022/01/19 07:33:03;;;;;;;54.13;24.08;;;4.80;99.90;;;;;;4983381;28;20034;-74
2022/01/19 07:35:29;;;;;;;62.30;24.33;;;4.80;99.90;;;;;;4984449;28;20168;-73
2022/01/19 07:37:55;;;;;;;56.15;21.92;;;4.90;99.90;;;;;;4986033;28;20081;-74
2022/01/19 07:40:21;;;;;;;55.30;23.92;;;4.90;99.90;;;;;;4989086;28;20038;-74
2022/01/19 07:42:46;;;;;;;58.03;23.17;;;5.00;99.90;;;;;;4988540;28;20543;-75
2022/01/19 07:45:12;;;;;;;55.45;22.83;;;5.00;99.90;;;;;;4985275;28;20045;-75
2022/01/19 07:47:38;;;;;;;52.95;22.65;;;5.00;99.90;;;;;;4985127;28;20039;-75
2022/01/19 07:50:04;;;;;;;52.90;22.65;;;5.10;99.90;;;;;;4980366;28;20031;-75
2022/01/19 07:52:30;;;;;;;56.50;23.25;;;5.10;99.90;;;;;;4982123;28;20109;-75
2022/01/19 07:54:56;;;;;;;51.50;22.75;;;5.20;99.90;;;;;;4983196;28;20109;-74
2022/01/19 07:57:21;;;;;;;51.97;22.73;;;5.40;99.90;;;;;;4981495;28;20038;-73
2022/01/19 07:59:47;;;;;;;58.67;23.75;;;5.40;99.90;;;;;;4983048;28;20034;-73
2022/01/19 08:02:13;;;;;;;55.95;23.17;;;5.50;99.90;;;;;;4986045;28;20035;-73
2022/01/19 08:04:40;;;;;;;60.40;24.42;;;5.40;99.90;;;;;;4987586;28;20046;-74
2022/01/19 08:07:06;;;;;;;57.33;23.45;;;5.50;99.90;;;;;;4983784;28;20035;-74
2022/01/19 08:09:33;;;;;;;60.50;24.83;;;5.40;99.90;;;;;;4981887;28;20109;-74
2022/01/19 08:11:59;;;;;;;49.33;23.83;;;5.40;99.90;;;;;;4983230;28;20105;-74
2022/01/19 08:14:25;;;;;;;51.72;22.88;;;5.30;99.90;;;;;;4981769;28;20034;-74
2022/01/19 08:16:52;;;;;;;62.72;23.75;;;5.30;99.90;;;;;;4985146;28;20390;-73
2022/01/19 08:19:17;;;;;;;59.53;25.83;;;5.40;99.90;;;;;;4982823;28;20054;-74
2022/01/19 08:21:43;;;;;;;59.67;25.63;;;5.40;99.90;;;;;;4983886;28;20400;-74
2022/01/19 08:24:09;;;;;;;56.38;24.77;;;5.30;99.90;;;;;;4982746;28;20034;-74
2022/01/19 08:26:35;;;;;;;64.43;25.45;;;5.30;99.90;;;;;;4985492;28;20068;-74
2022/01/19 08:29:01;;;;;;;67.50;26.92;;;5.20;99.90;;;;;;4985640;28;20121;-74
2022/01/19 08:31:27;;;;;;;60.90;25.05;;;5.10;99.90;;;;;;4984496;28;20034;-74
2022/01/19 08:33:52;;;;;;;54.47;22.70;;;5.10;99.90;;;;;;4997668;28;20030;-74
2022/01/19 08:36:18;;;;;;;61.50;27.00;;;5.10;99.90;;;;;;4982924;28;20030;-74
2022/01/19 08:38:44;;;;;;;55.00;24.77;;;5.10;99.90;;;;;;4978964;28;20110;-74
2022/01/19 08:41:10;;;;;;;64.15;24.05;;;5.00;99.90;;;;;;4996301;28;20447;-74
2022/01/19 08:43:36;;;;;;;62.00;26.75;;;5.00;99.90;;;;;;4982531;28;20089;-74
2022/01/19 08:46:02;;;;;;;66.68;27.65;;;5.00;99.90;;;;;;4982505;28;20022;-74
2022/01/19 08:48:28;;;;;;;75.28;27.50;;;5.00;99.90;;;;;;4983972;28;20029;-75
2022/01/19 08:50:54;;;;;;;58.65;26.45;;;5.00;99.90;;;;;;4984768;28;20590;-74
2022/01/19 08:53:21;;;;;;;65.30;27.67;;;5.00;99.90;;;;;;4986179;28;20055;-74
2022/01/19 08:55:48;;;;;;;68.03;28.17;;;5.00;99.90;;;;;;4988005;28;20072;-74
2022/01/19 08:58:14;;;;;;;61.30;25.42;;;4.90;99.90;;;;;;4983044;28;20058;-74
2022/01/19 09:00:41;;;;;;;54.90;25.02;;;4.90;99.90;;;;;;4985638;28;20488;-73
2022/01/19 09:03:07;;;;;;;62.08;25.70;;;4.90;99.90;;;;;;4987067;28;20458;-74
2022/01/19 09:05:33;;;;;;;58.67;24.15;;;4.90;99.90;;;;;;4988393;28;20077;-75
2022/01/19 09:07:59;;;;;;;57.75;25.10;;;4.90;99.90;;;;;;4981789;28;20584;-74
2022/01/19 09:10:25;;;;;;;61.92;25.58;;;5.00;99.90;;;;;;4981313;28;20034;-74
2022/01/19 09:12:51;;;;;;;59.58;24.05;;;5.00;99.90;;;;;;4982866;28;20022;-75
2022/01/19 09:15:18;;;;;;;61.35;27.20;;;4.90;99.90;;;;;;4983447;28;20039;-75
2022/01/19 09:17:44;;;;;;;67.90;28.73;;;4.90;99.90;;;;;;4983754;28;20036;-75
2022/01/19 09:20:11;;;;;;;61.47;25.83;;;4.90;99.90;;;;;;4983584;28;20054;-74
2022/01/19 09:22:37;;;;;;;63.72;26.15;;;4.90;99.90;;;;;;4980860;28;20029;-73
2022/01/19 09:25:05;;;;;;;63.55;27.27;;;5.00;99.90;;;;;;4983851;28;20026;-74
2022/01/19 09:27:31;;;;;;;60.13;26.50;;;5.00;99.90;;;;;;4985674;28;20081;-73
2022/01/19 09:29:58;;;;;;;65.40;28.10;;;5.00;99.90;;;;;;4983280;28;20030;-73
2022/01/19 09:32:24;;;;;;;76.45;29.15;;;5.00;99.90;;;;;;4982793;28;20030;-73
2022/01/19 09:34:58;;;;;;;64.43;28.33;;;5.00;99.90;;;;;;4982479;28;20077;-73
2022/01/19 09:37:24;;;;;;;71.63;27.95;;;5.00;99.90;;;;;;4988485;28;20436;-74
2022/01/19 09:39:49;;;;;;;59.10;25.25;;;5.00;99.90;;;;;;4986634;28;20062;-74
2022/01/19 09:42:15;;;;;;;69.32;28.27;;;5.00;99.90;;;;;;4981018;28;20550;-74
2022/01/19 09:44:41;;;;;;;62.00;26.83;;;5.00;99.90;;;;;;4980506;28;20039;-75
2022/01/19 09:47:07;;;;;;;64.05;27.33;;;5.10;99.90;;;;;;4983869;28;20080;-75
2022/01/19 09:49:33;;;;;;;67.70;29.63;;;5.10;99.90;;;;;;4984422;28;20412;-75
2022/01/19 09:51:59;;;;;;;75.13;29.73;;;5.10;99.90;;;;;;4985561;28;20043;-75
2022/01/19 09:54:30;;;;;;;67.15;28.10;;;5.00;99.90;;;;;;4982552;28;20030;-74
2022/01/19 09:56:56;;;;;;;69.88;28.88;;;5.10;99.90;;;;;;4984081;28;20030;-75
2022/01/19 09:59:22;;;;;;;66.70;28.50;;;5.10;99.90;;;;;;4980920;28;20057;-75
2022/01/19 10:01:54;;;;;;;76.22;29.10;;;5.10;99.90;;;;;;4984397;28;20472;-75
2022/01/19 10:04:26;;;;;;;70.03;28.40;;;5.10;99.90;;;;;;4986514;28;20026;-75
2022/01/19 10:07:12;;;;;;;70.22;27.92;;;5.00;99.90;;;;;;4988761;28;20041;-74
2022/01/19 10:09:48;;;;;;;68.50;26.95;;;5.10;99.90;;;;;;4985386;28;20046;-74
2022/01/19 10:18:06;;;;;;;67.90;28.83;;;5.10;99.90;;;;;;4986358;28;20168;-74
2022/01/19 10:20:31;;;;;;;78.00;27.90;;;5.10;99.90;;;;;;4987597;28;20551;-74
2022/01/19 10:22:57;;;;;;;67.85;27.52;;;5.00;99.90;;;;;;4986395;28;20165;-74
2022/01/19 10:25:23;;;;;;;60.17;24.90;;;5.10;99.90;;;;;;4991642;28;20060;-75
2022/01/19 10:27:48;;;;;;;62.83;27.17;;;5.00;99.90;;;;;;4987613;28;20119;-75
2022/01/19 10:30:25;;;;;;;57.70;24.52;;;5.10;99.90;;;;;;4986827;28;20037;-75
2022/01/19 10:32:59;;;;;;;57.28;24.00;;;5.10;99.90;;;;;;4987410;28;20424;-75
2022/01/19 10:35:38;;;;;;;62.55;26.05;;;5.10;99.90;;;;;;4987523;28;20030;-74
2022/01/19 10:38:05;;;;;;;60.58;26.13;;;5.10;99.90;;;;;;4987738;28;20062;-75
2022/01/19 10:40:31;;;;;;;62.05;26.45;;;5.00;99.90;;;;;;4992109;28;20384;-76
2022/01/19 10:42:57;;;;;;;57.35;26.02;;;5.00;99.90;;;;;;4987966;28;20050;-75
2022/01/19 10:45:22;;;;;;;59.03;24.70;;;5.00;99.90;;;;;;4986554;28;20164;-75
2022/01/19 10:47:57;;;;;;;62.28;26.60;;;5.00;99.90;;;;;;4984399;28;20073;-75
2022/01/19 10:50:29;;;;;;;62.08;25.70;;;5.00;99.90;;;;;;4987916;28;20466;-75
2022/01/19 10:52:57;;;;;;;62.65;26.05;;;5.00;99.90;;;;;;4992803;28;20026;-75
2022/01/19 10:55:23;;;;;;;59.08;27.08;;;5.00;99.90;;;;;;4986940;28;20034;-75
2022/01/19 10:57:50;;;;;;;60.50;26.02;;;5.00;99.90;;;;;;4984695;28;20031;-75
2022/01/19 11:00:29;;;;;;;60.42;26.00;;;4.90;99.90;;;;;;4984926;28;20065;-75
2022/01/19 11:03:13;;;;;;;57.03;24.80;;;5.00;99.90;;;;;;4985623;28;20030;-75
2022/01/19 11:05:41;;;;;;;54.63;26.20;;;4.90;99.90;;;;;;4984003;28;20144;-75
2022/01/19 11:08:08;;;;;;;60.13;26.15;;;4.90;99.90;;;;;;4979606;28;20034;-75
2022/01/19 11:10:34;;;;;;;59.40;25.88;;;4.90;99.90;;;;;;4982816;28;20100;-75
2022/01/19 11:12:59;;;;;;;59.25;25.42;;;4.90;99.90;;;;;;4999405;28;20600;-75
2022/01/19 11:15:25;;;;;;;60.80;27.42;;;4.90;99.90;;;;;;4983151;28;20026;-75
2022/01/19 11:17:51;;;;;;;61.40;27.00;;;4.90;99.90;;;;;;4984937;28;20106;-75
2022/01/19 11:20:23;;;;;;;61.67;27.30;;;4.80;99.90;;;;;;4983617;28;20238;-75
2022/01/19 11:23:21;;;;;;;58.13;25.17;;;4.90;99.90;;;;;;4984591;28;20100;-75
2022/01/19 11:26:00;;;;;;;53.25;24.45;;;4.90;99.90;;;;;;4983459;28;20053;-75
2022/01/19 11:28:37;;;;;;;59.20;24.42;;;4.90;99.90;;;;;;4983898;28;20112;-76
2022/01/19 11:31:19;;;;;;;56.53;26.15;;;4.90;99.90;;;;;;4983053;28;20058;-75
2022/01/19 11:33:51;;;;;;;55.47;25.73;;;4.90;99.90;;;;;;4984525;28;20030;-75
2022/01/19 11:36:29;;;;;;;52.78;24.90;;;4.80;99.90;;;;;;4982591;28;20034;-74
2022/01/19 11:39:06;;;;;;;60.53;26.02;;;4.80;99.90;;;;;;4984467;28;20054;-75
2022/01/19 11:41:34;;;;;;;63.17;27.63;;;4.70;99.90;;;;;;4985484;28;20440;-75
2022/01/19 11:44:00;;;;;;;55.30;24.08;;;4.60;99.90;;;;;;4981474;28;20022;-75
2022/01/19 11:46:25;;;;;;;63.60;26.52;;;4.60;99.90;;;;;;4983700;28;20113;-75
2022/01/19 11:48:51;;;;;;;58.22;26.65;;;4.60;99.90;;;;;;4985089;28;20065;-75
2022/01/19 11:51:38;;;;;;;56.72;24.52;;;4.60;99.90;;;;;;4983548;28;20133;-75
2022/01/19 11:54:21;;;;;;;63.00;25.83;;;4.50;99.90;;;;;;4985117;28;20030;-75
2022/01/19 11:56:59;;;;;;;60.50;26.20;;;4.50;99.90;;;;;;4982818;28;20113;-75
2022/01/19 11:59:45;;;;;;;64.70;26.98;;;4.40;99.90;;;;;;4997908;28;20507;-75
2022/01/19 12:02:28;;;;;;;59.67;25.27;;;4.40;99.90;;;;;;4983995;28;20033;-75
2022/01/19 12:05:13;;;;;;;64.13;26.52;;;4.40;99.90;;;;;;4981629;28;20106;-74
2022/01/19 12:07:52;;;;;;;56.10;25.77;;;4.30;99.90;;;;;;4984734;28;20026;-75
2022/01/19 12:10:37;;;;;;;58.33;25.50;;;4.30;99.90;;;;;;5033960;23;20053;-74
2022/01/19 12:19:08;;;;;;;62.83;26.95;;;4.30;99.90;;;;;;5017721;28;20100;-74
2022/01/19 12:21:34;;;;;;;57.42;25.67;;;4.30;99.90;;;;;;5019998;28;20029;-74
2022/01/19 12:24:15;;;;;;;63.22;26.33;;;4.30;99.90;;;;;;5019078;28;20057;-74
2022/01/19 12:27:22;;;;;;;59.03;26.13;;;4.30;99.90;;;;;;5020790;28;20061;-74
2022/01/19 12:30:09;;;;;;;52.65;26.15;;;4.40;99.90;;;;;;5014304;28;20081;-74
2022/01/19 12:32:44;;;;;;;54.00;25.73;;;4.40;99.90;;;;;;5018107;28;20041;-75
2022/01/19 12:35:13;;;;;;;60.40;26.88;;;4.40;99.90;;;;;;5018651;28;20036;-75
2022/01/19 12:37:48;;;;;;;51.70;25.05;;;4.40;99.90;;;;;;5018970;28;20368;-74
2022/01/19 12:40:17;;;;;;;56.55;25.27;;;4.40;99.90;;;;;;5009182;28;20025;-74
2022/01/19 12:43:05;;;;;;;48.50;24.30;;;4.50;99.90;;;;;;5017694;28;20022;-74
2022/01/19 12:45:30;;;;;;;53.97;26.05;;;4.50;99.90;;;;;;5014359;28;20018;-75
2022/01/19 12:48:06;;;;;;;55.97;27.00;;;4.50;99.90;;;;;;5018130;28;20041;-75
2022/01/19 12:50:47;;;;;;;50.42;26.73;;;4.50;99.90;;;;;;5020847;28;20022;-76
2022/01/19 12:53:21;;;;;;;51.00;26.15;;;4.50;99.90;;;;;;5018707;28;20429;-75
2022/01/19 12:55:54;;;;;;;53.63;26.00;;;4.50;99.90;;;;;;5016583;28;20956;-74
2022/01/19 12:58:36;;;;;;;51.30;26.88;;;4.50;99.90;;;;;;5015901;28;20049;-74
2022/01/19 13:01:11;;;;;;;52.65;25.60;;;4.60;99.90;;;;;;5016844;28;20022;-74
2022/01/19 13:03:42;;;;;;;52.08;27.17;;;4.60;99.90;;;;;;5016229;28;20117;-74
2022/01/19 13:06:15;;;;;;;53.30;27.13;;;4.60;99.90;;;;;;5019547;28;20103;-74
2022/01/19 13:08:56;;;;;;;56.35;27.55;;;4.60;99.90;;;;;;5017681;28;20083;-75
2022/01/19 13:11:34;;;;;;;54.03;25.83;;;4.60;99.90;;;;;;5017188;28;20072;-75
2022/01/19 13:14:12;;;;;;;56.40;27.60;;;4.60;99.90;;;;;;5013899;28;20482;-74
2022/01/19 13:16:44;;;;;;;57.00;28.45;;;4.60;99.90;;;;;;5019425;28;20038;-74
2022/01/19 13:19:14;;;;;;;48.97;24.95;;;4.60;99.90;;;;;;5016695;28;20487;-74
2022/01/19 13:21:43;;;;;;;53.42;26.80;;;4.60;99.90;;;;;;5017422;28;20436;-74
2022/01/19 13:24:20;;;;;;;56.28;26.23;;;4.60;99.90;;;;;;5017535;28;20112;-75
2022/01/19 13:26:59;;;;;;;267.27;110.03;;;4.60;99.90;;;;;;5016862;28;20466;-74
2022/01/19 13:29:31;;;;;;;76.85;37.55;;;4.60;99.90;;;;;;5016719;28;20064;-75
2022/01/19 13:32:12;;;;;;;57.13;29.08;;;4.60;99.90;;;;;;5016426;28;20045;-74
2022/01/19 13:34:54;;;;;;;55.70;27.27;;;4.70;99.90;;;;;;5017951;28;20043;-75
2022/01/19 13:37:23;;;;;;;51.30;25.98;;;4.60;99.90;;;;;;5015633;28;20040;-75
2022/01/19 13:40:03;;;;;;;53.03;26.05;;;4.70;99.90;;;;;;5017537;28;20537;-74
2022/01/19 13:42:37;;;;;;;52.67;26.35;;;4.60;99.90;;;;;;5014175;28;20034;-75
2022/01/19 13:45:10;;;;;;;50.90;26.17;;;4.70;99.90;;;;;;5016029;28;20033;-75
2022/01/19 13:47:56;;;;;;;54.80;26.70;;;4.60;99.90;;;;;;5013688;28;20034;-75
2022/01/19 13:50:23;;;;;;;58.08;28.05;;;4.60;99.90;;;;;;5021160;28;20041;-74
2022/01/19 13:52:49;;;;;;;54.85;25.55;;;4.60;99.90;;;;;;5016631;28;20388;-74
2022/01/19 13:55:20;;;;;;;54.63;25.17;;;4.60;99.90;;;;;;5011562;28;20019;-74
2022/01/19 13:57:46;;;;;;;53.00;26.75;;;4.60;99.90;;;;;;5019934;28;20034;-74
2022/01/19 14:00:16;;;;;;;55.47;26.23;;;4.60;99.90;;;;;;5015735;28;20041;-74
2022/01/19 14:02:56;;;;;;;60.63;25.95;;;4.60;99.90;;;;;;5016943;28;20398;-74
2022/01/19 14:05:35;;;;;;;58.70;26.65;;;4.60;99.90;;;;;;4996814;28;20022;-74
2022/01/19 14:08:01;;;;;;;58.88;27.17;;;4.60;99.90;;;;;;5014237;28;20068;-73
2022/01/19 14:10:47;;;;;;;61.20;27.30;;;4.60;99.90;;;;;;5008292;28;20069;-73
2022/01/19 14:13:32;;;;;;;52.20;26.20;;;4.60;99.90;;;;;;5014740;28;20525;-74
2022/01/19 14:16:31;;;;;;;58.25;26.55;;;4.60;99.90;;;;;;5017837;28;20030;-74
2022/01/19 14:19:10;;;;;;;65.38;28.55;;;4.60;99.90;;;;;;5011011;28;20033;-76
2022/01/19 14:22:01;;;;;;;58.80;27.17;;;4.60;99.90;;;;;;5012181;28;20063;-76